sensor_id;sensor_type;location;lat;lon;timestamp;P1;durP1;ratioP1;P2;durP2;ratioP2
38972;SDS011;25333;50.762;4.470;2022-09-03T00:01:40;3.67;;;2.40;;
38972;SDS011;25333;50.762;4.470;2022-09-03T00:04:13;3.83;;;2.13;;
38972;SDS011;25333;50.762;4.470;2022-09-03T00:06:44;4.13;;;2.60;;
38972;SDS011;25333;50.762;4.470;2022-09-03T00:09:18;2.53;;;1.85;;
38972;SDS011;25333;50.762;4.470;2022-09-03T00:14:40;2.92;;;2.50;;
38972;SDS011;25333;50.762;4.470;2022-09-03T00:17:26;2.77;;;2.13;;
38972;SDS011;25333;50.762;4.470;2022-09-03T00:20:05;3.40;;;2.40;;
38972;SDS011;25333;50.762;4.470;2022-09-03T00:22:32;3.08;;;2.35;;
38972;SDS011;25333;50.762;4.470;2022-09-03T00:25:02;2.57;;;2.07;;
38972;SDS011;25333;50.762;4.470;2022-09-03T00:27:31;3.55;;;2.65;;
38972;SDS011;25333;50.762;4.470;2022-09-03T00:30:08;3.95;;;2.58;;
38972;SDS011;25333;50.762;4.470;2022-09-03T00:32:58;2.72;;;2.50;;
38972;SDS011;25333;50.762;4.470;2022-09-03T00:35:34;4.80;;;2.63;;
38972;SDS011;25333;50.762;4.470;2022-09-03T00:38:08;2.63;;;2.35;;
38972;SDS011;25333;50.762;4.470;2022-09-03T01:00:04;3.67;;;2.83;;
38972;SDS011;25333;50.762;4.470;2022-09-03T01:05:23;3.33;;;2.27;;
38972;SDS011;25333;50.762;4.470;2022-09-03T01:28:18;2.85;;;2.00;;
38972;SDS011;25333;50.762;4.470;2022-09-03T01:36:43;3.28;;;2.28;;
38972;SDS011;25333;50.762;4.470;2022-09-03T01:39:49;2.70;;;2.30;;
38972;SDS011;25333;50.762;4.470;2022-09-03T01:45:11;2.75;;;2.35;;
38972;SDS011;25333;50.762;4.470;2022-09-03T01:59:32;3.55;;;2.53;;
38972;SDS011;25333;50.762;4.470;2022-09-03T02:02:09;3.40;;;2.42;;
38972;SDS011;25333;50.762;4.470;2022-09-03T02:07:33;3.17;;;2.47;;
38972;SDS011;25333;50.762;4.470;2022-09-03T02:10:04;2.47;;;1.98;;
38972;SDS011;25333;50.762;4.470;2022-09-03T02:12:45;2.97;;;2.45;;
38972;SDS011;25333;50.762;4.470;2022-09-03T02:15:16;3.55;;;2.42;;
38972;SDS011;25333;50.762;4.470;2022-09-03T02:17:44;5.38;;;2.17;;
38972;SDS011;25333;50.762;4.470;2022-09-03T02:20:15;3.13;;;2.53;;
38972;SDS011;25333;50.762;4.470;2022-09-03T02:22:47;2.97;;;2.53;;
38972;SDS011;25333;50.762;4.470;2022-09-03T02:25:14;2.53;;;1.80;;
38972;SDS011;25333;50.762;4.470;2022-09-03T02:27:40;2.83;;;2.30;;
38972;SDS011;25333;50.762;4.470;2022-09-03T02:30:06;3.10;;;2.10;;
38972;SDS011;25333;50.762;4.470;2022-09-03T02:32:33;3.20;;;2.38;;
38972;SDS011;25333;50.762;4.470;2022-09-03T02:34:58;2.73;;;1.97;;
38972;SDS011;25333;50.762;4.470;2022-09-03T02:37:24;4.10;;;2.40;;
38972;SDS011;25333;50.762;4.470;2022-09-03T02:39:50;2.50;;;2.27;;
38972;SDS011;25333;50.762;4.470;2022-09-03T02:42:16;3.58;;;2.35;;
38972;SDS011;25333;50.762;4.470;2022-09-03T02:44:47;3.03;;;2.17;;
38972;SDS011;25333;50.762;4.470;2022-09-03T02:47:16;4.10;;;2.50;;
38972;SDS011;25333;50.762;4.470;2022-09-03T02:49:44;6.05;;;2.63;;
38972;SDS011;25333;50.762;4.470;2022-09-03T02:52:13;2.07;;;1.87;;
38972;SDS011;25333;50.762;4.470;2022-09-03T02:54:39;4.70;;;2.55;;
38972;SDS011;25333;50.762;4.470;2022-09-03T02:57:09;3.85;;;2.78;;
38972;SDS011;25333;50.762;4.470;2022-09-03T02:59:38;3.10;;;2.17;;
38972;SDS011;25333;50.762;4.470;2022-09-03T03:02:04;3.53;;;3.00;;
38972;SDS011;25333;50.762;4.470;2022-09-03T03:04:29;3.40;;;2.20;;
38972;SDS011;25333;50.762;4.470;2022-09-03T03:06:56;3.10;;;2.70;;
38972;SDS011;25333;50.762;4.470;2022-09-03T03:09:22;3.78;;;2.65;;
38972;SDS011;25333;50.762;4.470;2022-09-03T03:11:48;2.47;;;2.20;;
38972;SDS011;25333;50.762;4.470;2022-09-03T03:14:17;3.17;;;2.83;;
38972;SDS011;25333;50.762;4.470;2022-09-03T03:16:43;3.17;;;2.87;;
38972;SDS011;25333;50.762;4.470;2022-09-03T03:19:08;3.27;;;2.63;;
38972;SDS011;25333;50.762;4.470;2022-09-03T03:21:34;3.08;;;2.78;;
38972;SDS011;25333;50.762;4.470;2022-09-03T03:24:00;3.97;;;2.83;;
38972;SDS011;25333;50.762;4.470;2022-09-03T03:26:26;4.15;;;3.03;;
38972;SDS011;25333;50.762;4.470;2022-09-03T03:28:55;3.53;;;2.93;;
38972;SDS011;25333;50.762;4.470;2022-09-03T03:31:22;3.97;;;3.38;;
38972;SDS011;25333;50.762;4.470;2022-09-03T03:33:51;4.05;;;3.00;;
38972;SDS011;25333;50.762;4.470;2022-09-03T03:36:20;3.00;;;2.30;;
38972;SDS011;25333;50.762;4.470;2022-09-03T03:38:47;4.45;;;3.13;;
38972;SDS011;25333;50.762;4.470;2022-09-03T03:41:15;7.00;;;3.70;;
38972;SDS011;25333;50.762;4.470;2022-09-03T03:43:42;5.18;;;3.80;;
38972;SDS011;25333;50.762;4.470;2022-09-03T03:46:08;6.60;;;4.00;;
38972;SDS011;25333;50.762;4.470;2022-09-03T03:48:35;4.18;;;3.45;;
38972;SDS011;25333;50.762;4.470;2022-09-03T03:51:03;4.30;;;3.90;;
38972;SDS011;25333;50.762;4.470;2022-09-03T03:53:31;5.07;;;3.60;;
38972;SDS011;25333;50.762;4.470;2022-09-03T03:55:59;5.73;;;3.23;;
38972;SDS011;25333;50.762;4.470;2022-09-03T03:58:29;6.95;;;3.72;;
38972;SDS011;25333;50.762;4.470;2022-09-03T04:01:06;5.80;;;3.35;;
38972;SDS011;25333;50.762;4.470;2022-09-03T04:03:34;4.10;;;3.63;;
38972;SDS011;25333;50.762;4.470;2022-09-03T04:06:00;5.70;;;3.70;;
38972;SDS011;25333;50.762;4.470;2022-09-03T04:08:28;5.28;;;3.45;;
38972;SDS011;25333;50.762;4.470;2022-09-03T04:10:58;4.97;;;4.10;;
38972;SDS011;25333;50.762;4.470;2022-09-03T04:13:31;4.93;;;3.67;;
38972;SDS011;25333;50.762;4.470;2022-09-03T04:18:33;4.60;;;3.75;;
38972;SDS011;25333;50.762;4.470;2022-09-03T04:21:06;5.40;;;4.28;;
38972;SDS011;25333;50.762;4.470;2022-09-03T04:23:34;5.38;;;3.03;;
38972;SDS011;25333;50.762;4.470;2022-09-03T04:26:03;4.37;;;3.70;;
38972;SDS011;25333;50.762;4.470;2022-09-03T04:28:29;4.00;;;3.27;;
38972;SDS011;25333;50.762;4.470;2022-09-03T04:30:59;4.63;;;3.03;;
38972;SDS011;25333;50.762;4.470;2022-09-03T04:33:29;4.22;;;3.55;;
38972;SDS011;25333;50.762;4.470;2022-09-03T04:36:29;4.15;;;3.05;;
38972;SDS011;25333;50.762;4.470;2022-09-03T04:38:49;3.70;;;3.15;;
38972;SDS011;25333;50.762;4.470;2022-09-03T04:41:19;4.22;;;3.70;;
38972;SDS011;25333;50.762;4.470;2022-09-03T04:43:49;3.75;;;3.20;;
38972;SDS011;25333;50.762;4.470;2022-09-03T04:46:16;5.55;;;3.80;;
38972;SDS011;25333;50.762;4.470;2022-09-03T04:48:42;4.47;;;3.53;;
38972;SDS011;25333;50.762;4.470;2022-09-03T04:51:12;4.35;;;3.67;;
38972;SDS011;25333;50.762;4.470;2022-09-03T04:53:40;4.53;;;3.10;;
38972;SDS011;25333;50.762;4.470;2022-09-03T04:56:11;3.65;;;2.92;;
38972;SDS011;25333;50.762;4.470;2022-09-03T04:58:37;4.25;;;3.80;;
38972;SDS011;25333;50.762;4.470;2022-09-03T05:01:06;4.03;;;3.20;;
38972;SDS011;25333;50.762;4.470;2022-09-03T05:03:33;5.53;;;3.60;;
38972;SDS011;25333;50.762;4.470;2022-09-03T05:05:58;5.70;;;3.13;;
38972;SDS011;25333;50.762;4.470;2022-09-03T05:08:24;5.13;;;3.60;;
38972;SDS011;25333;50.762;4.470;2022-09-03T05:10:56;5.15;;;3.60;;
38972;SDS011;25333;50.762;4.470;2022-09-03T05:13:26;4.93;;;3.33;;
38972;SDS011;25333;50.762;4.470;2022-09-03T05:15:52;3.90;;;3.38;;
38972;SDS011;25333;50.762;4.470;2022-09-03T05:18:23;4.13;;;2.90;;
38972;SDS011;25333;50.762;4.470;2022-09-03T05:20:56;4.53;;;3.77;;
38972;SDS011;25333;50.762;4.470;2022-09-03T05:23:23;4.25;;;3.15;;
38972;SDS011;25333;50.762;4.470;2022-09-03T05:25:56;5.00;;;3.55;;
38972;SDS011;25333;50.762;4.470;2022-09-03T05:28:23;5.78;;;4.38;;
38972;SDS011;25333;50.762;4.470;2022-09-03T05:31:10;3.72;;;3.42;;
38972;SDS011;25333;50.762;4.470;2022-09-03T05:33:44;3.13;;;2.83;;
38972;SDS011;25333;50.762;4.470;2022-09-03T05:36:12;4.93;;;3.58;;
38972;SDS011;25333;50.762;4.470;2022-09-03T05:38:40;3.97;;;2.97;;
38972;SDS011;25333;50.762;4.470;2022-09-03T05:41:07;3.80;;;3.28;;
38972;SDS011;25333;50.762;4.470;2022-09-03T05:43:34;4.30;;;3.85;;
38972;SDS011;25333;50.762;4.470;2022-09-03T05:46:04;3.87;;;3.30;;
38972;SDS011;25333;50.762;4.470;2022-09-03T05:48:32;4.03;;;3.67;;
38972;SDS011;25333;50.762;4.470;2022-09-03T05:51:00;4.53;;;3.58;;
38972;SDS011;25333;50.762;4.470;2022-09-03T05:53:37;4.28;;;3.72;;
38972;SDS011;25333;50.762;4.470;2022-09-03T05:56:05;4.22;;;3.83;;
38972;SDS011;25333;50.762;4.470;2022-09-03T05:58:41;3.83;;;3.40;;
38972;SDS011;25333;50.762;4.470;2022-09-03T06:01:13;3.90;;;3.50;;
38972;SDS011;25333;50.762;4.470;2022-09-03T06:04:14;4.20;;;3.78;;
38972;SDS011;25333;50.762;4.470;2022-09-03T06:06:40;7.38;;;3.28;;
38972;SDS011;25333;50.762;4.470;2022-09-03T06:09:07;4.22;;;3.75;;
38972;SDS011;25333;50.762;4.470;2022-09-03T06:11:37;3.85;;;3.35;;
38972;SDS011;25333;50.762;4.470;2022-09-03T06:14:05;4.18;;;3.58;;
38972;SDS011;25333;50.762;4.470;2022-09-03T06:16:34;4.22;;;3.45;;
38972;SDS011;25333;50.762;4.470;2022-09-03T06:19:03;4.87;;;3.53;;
38972;SDS011;25333;50.762;4.470;2022-09-03T06:21:31;3.97;;;3.58;;
38972;SDS011;25333;50.762;4.470;2022-09-03T06:23:57;3.58;;;3.25;;
38972;SDS011;25333;50.762;4.470;2022-09-03T06:26:23;4.38;;;3.10;;
38972;SDS011;25333;50.762;4.470;2022-09-03T06:28:49;5.35;;;4.47;;
38972;SDS011;25333;50.762;4.470;2022-09-03T06:31:20;3.40;;;3.03;;
38972;SDS011;25333;50.762;4.470;2022-09-03T06:33:47;4.22;;;3.28;;
38972;SDS011;25333;50.762;4.470;2022-09-03T06:36:14;4.37;;;3.60;;
38972;SDS011;25333;50.762;4.470;2022-09-03T06:38:42;4.68;;;3.33;;
38972;SDS011;25333;50.762;4.470;2022-09-03T06:41:09;4.07;;;3.55;;
38972;SDS011;25333;50.762;4.470;2022-09-03T06:43:45;3.40;;;3.10;;
38972;SDS011;25333;50.762;4.470;2022-09-03T06:46:13;4.18;;;3.75;;
38972;SDS011;25333;50.762;4.470;2022-09-03T06:48:43;4.03;;;3.63;;
38972;SDS011;25333;50.762;4.470;2022-09-03T06:51:12;3.63;;;2.95;;
38972;SDS011;25333;50.762;4.470;2022-09-03T06:53:41;3.67;;;3.08;;
38972;SDS011;25333;50.762;4.470;2022-09-03T06:56:09;3.75;;;3.15;;
38972;SDS011;25333;50.762;4.470;2022-09-03T06:58:38;5.57;;;3.95;;
38972;SDS011;25333;50.762;4.470;2022-09-03T07:01:09;8.05;;;3.95;;
38972;SDS011;25333;50.762;4.470;2022-09-03T07:03:37;5.03;;;3.67;;
38972;SDS011;25333;50.762;4.470;2022-09-03T07:06:05;4.10;;;3.25;;
38972;SDS011;25333;50.762;4.470;2022-09-03T07:08:41;4.03;;;3.50;;
38972;SDS011;25333;50.762;4.470;2022-09-03T07:11:13;4.35;;;3.47;;
38972;SDS011;25333;50.762;4.470;2022-09-03T07:13:41;3.38;;;3.08;;
38972;SDS011;25333;50.762;4.470;2022-09-03T07:16:19;3.55;;;3.05;;
38972;SDS011;25333;50.762;4.470;2022-09-03T07:18:46;3.93;;;3.50;;
38972;SDS011;25333;50.762;4.470;2022-09-03T07:21:16;3.45;;;2.80;;
38972;SDS011;25333;50.762;4.470;2022-09-03T07:23:43;4.97;;;3.78;;
38972;SDS011;25333;50.762;4.470;2022-09-03T07:26:10;3.87;;;3.37;;
38972;SDS011;25333;50.762;4.470;2022-09-03T07:28:39;4.00;;;3.03;;
38972;SDS011;25333;50.762;4.470;2022-09-03T07:33:33;3.70;;;3.28;;
38972;SDS011;25333;50.762;4.470;2022-09-03T07:36:17;4.47;;;3.83;;
38972;SDS011;25333;50.762;4.470;2022-09-03T07:38:43;3.78;;;3.42;;
38972;SDS011;25333;50.762;4.470;2022-09-03T07:41:10;4.70;;;2.92;;
38972;SDS011;25333;50.762;4.470;2022-09-03T07:43:37;4.80;;;2.88;;
38972;SDS011;25333;50.762;4.470;2022-09-03T07:46:06;4.50;;;3.72;;
38972;SDS011;25333;50.762;4.470;2022-09-03T07:48:32;2.53;;;2.33;;
38972;SDS011;25333;50.762;4.470;2022-09-03T07:50:58;3.83;;;3.10;;
38972;SDS011;25333;50.762;4.470;2022-09-03T07:53:27;4.60;;;3.30;;
38972;SDS011;25333;50.762;4.470;2022-09-03T07:55:59;4.50;;;3.47;;
38972;SDS011;25333;50.762;4.470;2022-09-03T07:58:27;3.00;;;2.70;;
38972;SDS011;25333;50.762;4.470;2022-09-03T08:00:54;4.22;;;2.63;;
38972;SDS011;25333;50.762;4.470;2022-09-03T08:03:21;3.80;;;2.50;;
38972;SDS011;25333;50.762;4.470;2022-09-03T08:05:46;2.88;;;2.65;;
38972;SDS011;25333;50.762;4.470;2022-09-03T08:08:12;3.38;;;2.25;;
38972;SDS011;25333;50.762;4.470;2022-09-03T08:10:39;2.10;;;1.73;;
38972;SDS011;25333;50.762;4.470;2022-09-03T08:13:05;3.05;;;2.20;;
38972;SDS011;25333;50.762;4.470;2022-09-03T08:15:31;3.10;;;1.92;;
38972;SDS011;25333;50.762;4.470;2022-09-03T08:17:58;2.58;;;1.90;;
38972;SDS011;25333;50.762;4.470;2022-09-03T08:20:24;3.38;;;2.70;;
38972;SDS011;25333;50.762;4.470;2022-09-03T08:22:50;3.10;;;2.20;;
38972;SDS011;25333;50.762;4.470;2022-09-03T08:25:16;3.60;;;2.60;;
38972;SDS011;25333;50.762;4.470;2022-09-03T08:27:42;3.90;;;2.53;;
38972;SDS011;25333;50.762;4.470;2022-09-03T08:30:08;3.87;;;2.40;;
38972;SDS011;25333;50.762;4.470;2022-09-03T08:32:37;3.63;;;2.50;;
38972;SDS011;25333;50.762;4.470;2022-09-03T08:35:04;2.83;;;2.35;;
38972;SDS011;25333;50.762;4.470;2022-09-03T08:37:31;4.78;;;2.92;;
38972;SDS011;25333;50.762;4.470;2022-09-03T08:39:57;5.53;;;3.03;;
38972;SDS011;25333;50.762;4.470;2022-09-03T08:45:11;4.38;;;3.25;;
38972;SDS011;25333;50.762;4.470;2022-09-03T08:52:56;4.63;;;3.10;;
38972;SDS011;25333;50.762;4.470;2022-09-03T08:55:27;4.13;;;2.75;;
38972;SDS011;25333;50.762;4.470;2022-09-03T08:58:00;4.00;;;3.60;;
38972;SDS011;25333;50.762;4.470;2022-09-03T09:01:22;5.20;;;3.63;;
38972;SDS011;25333;50.762;4.470;2022-09-03T09:06:07;3.33;;;2.92;;
38972;SDS011;25333;50.762;4.470;2022-09-03T09:14:02;4.53;;;2.85;;
38972;SDS011;25333;50.762;4.470;2022-09-03T09:16:44;4.03;;;2.78;;
38972;SDS011;25333;50.762;4.470;2022-09-03T09:19:24;4.80;;;3.47;;
38972;SDS011;25333;50.762;4.470;2022-09-03T09:22:10;3.95;;;3.33;;
38972;SDS011;25333;50.762;4.470;2022-09-03T09:24:44;3.10;;;2.80;;
38972;SDS011;25333;50.762;4.470;2022-09-03T09:27:14;3.42;;;2.72;;
38972;SDS011;25333;50.762;4.470;2022-09-03T09:29:41;4.60;;;3.58;;
38972;SDS011;25333;50.762;4.470;2022-09-03T09:32:11;4.93;;;3.03;;
38972;SDS011;25333;50.762;4.470;2022-09-03T09:34:41;4.43;;;3.15;;
38972;SDS011;25333;50.762;4.470;2022-09-03T09:37:08;4.03;;;3.25;;
38972;SDS011;25333;50.762;4.470;2022-09-03T09:39:37;3.92;;;3.30;;
38972;SDS011;25333;50.762;4.470;2022-09-03T09:42:07;4.00;;;3.42;;
38972;SDS011;25333;50.762;4.470;2022-09-03T09:44:36;4.03;;;2.85;;
38972;SDS011;25333;50.762;4.470;2022-09-03T09:47:05;4.47;;;3.05;;
38972;SDS011;25333;50.762;4.470;2022-09-03T09:49:50;4.82;;;3.25;;
38972;SDS011;25333;50.762;4.470;2022-09-03T09:52:16;6.60;;;3.13;;
38972;SDS011;25333;50.762;4.470;2022-09-03T09:54:42;3.80;;;2.55;;
38972;SDS011;25333;50.762;4.470;2022-09-03T09:57:16;3.50;;;2.90;;
38972;SDS011;25333;50.762;4.470;2022-09-03T09:59:45;4.07;;;3.47;;
38972;SDS011;25333;50.762;4.470;2022-09-03T10:02:22;3.20;;;2.67;;
38972;SDS011;25333;50.762;4.470;2022-09-03T10:04:52;4.15;;;3.30;;
38972;SDS011;25333;50.762;4.470;2022-09-03T10:07:26;4.65;;;2.97;;
38972;SDS011;25333;50.762;4.470;2022-09-03T10:10:03;5.73;;;3.30;;
38972;SDS011;25333;50.762;4.470;2022-09-03T10:20:38;6.07;;;4.25;;
38972;SDS011;25333;50.762;4.470;2022-09-03T10:23:24;4.67;;;3.47;;
38972;SDS011;25333;50.762;4.470;2022-09-03T10:25:56;3.93;;;2.87;;
38972;SDS011;25333;50.762;4.470;2022-09-03T10:28:34;4.88;;;3.50;;
38972;SDS011;25333;50.762;4.470;2022-09-03T10:33:43;3.83;;;3.08;;
38972;SDS011;25333;50.762;4.470;2022-09-03T10:36:20;5.15;;;3.42;;
38972;SDS011;25333;50.762;4.470;2022-09-03T10:39:01;5.97;;;4.03;;
38972;SDS011;25333;50.762;4.470;2022-09-03T10:41:37;5.23;;;3.10;;
38972;SDS011;25333;50.762;4.470;2022-09-03T10:50:10;4.45;;;2.95;;
38972;SDS011;25333;50.762;4.470;2022-09-03T11:01:16;3.65;;;3.00;;
38972;SDS011;25333;50.762;4.470;2022-09-03T11:06:24;4.32;;;3.00;;
38972;SDS011;25333;50.762;4.470;2022-09-03T11:09:00;3.53;;;3.15;;
38972;SDS011;25333;50.762;4.470;2022-09-03T11:11:40;2.60;;;2.27;;
38972;SDS011;25333;50.762;4.470;2022-09-03T11:14:10;3.80;;;2.92;;
38972;SDS011;25333;50.762;4.470;2022-09-03T11:16:47;3.17;;;2.60;;
38972;SDS011;25333;50.762;4.470;2022-09-03T11:19:19;3.83;;;2.17;;
38972;SDS011;25333;50.762;4.470;2022-09-03T11:22:10;3.92;;;2.58;;
38972;SDS011;25333;50.762;4.470;2022-09-03T11:24:37;3.40;;;2.97;;
38972;SDS011;25333;50.762;4.470;2022-09-03T11:29:54;4.68;;;2.90;;
38972;SDS011;25333;50.762;4.470;2022-09-03T11:32:51;4.22;;;3.45;;
38972;SDS011;25333;50.762;4.470;2022-09-03T11:35:35;3.40;;;3.10;;
38972;SDS011;25333;50.762;4.470;2022-09-03T11:45:48;5.10;;;2.95;;
38972;SDS011;25333;50.762;4.470;2022-09-03T11:48:44;2.63;;;2.38;;
38972;SDS011;25333;50.762;4.470;2022-09-03T11:51:19;4.18;;;2.78;;
38972;SDS011;25333;50.762;4.470;2022-09-03T11:56:19;3.73;;;2.50;;
38972;SDS011;25333;50.762;4.470;2022-09-03T11:58:45;4.65;;;1.63;;
38972;SDS011;25333;50.762;4.470;2022-09-03T12:01:12;4.60;;;1.88;;
38972;SDS011;25333;50.762;4.470;2022-09-03T12:04:01;3.67;;;2.47;;
38972;SDS011;25333;50.762;4.470;2022-09-03T12:15:04;3.60;;;2.80;;
38972;SDS011;25333;50.762;4.470;2022-09-03T12:20:45;4.47;;;3.10;;
38972;SDS011;25333;50.762;4.470;2022-09-03T12:23:31;3.70;;;2.50;;
38972;SDS011;25333;50.762;4.470;2022-09-03T12:26:18;3.00;;;2.10;;
38972;SDS011;25333;50.762;4.470;2022-09-03T12:28:46;4.35;;;3.60;;
38972;SDS011;25333;50.762;4.470;2022-09-03T12:31:18;3.17;;;2.42;;
38972;SDS011;25333;50.762;4.470;2022-09-03T12:33:47;3.70;;;3.20;;
38972;SDS011;25333;50.762;4.470;2022-09-03T12:36:13;4.13;;;3.22;;
38972;SDS011;25333;50.762;4.470;2022-09-03T12:38:40;3.60;;;2.78;;
38972;SDS011;25333;50.762;4.470;2022-09-03T12:41:18;5.78;;;2.05;;
38972;SDS011;25333;50.762;4.470;2022-09-03T12:43:52;2.15;;;1.70;;
38972;SDS011;25333;50.762;4.470;2022-09-03T12:46:29;2.03;;;1.65;;
38972;SDS011;25333;50.762;4.470;2022-09-03T12:49:00;2.30;;;1.85;;
38972;SDS011;25333;50.762;4.470;2022-09-03T12:51:38;3.40;;;2.60;;
38972;SDS011;25333;50.762;4.470;2022-09-03T12:54:07;2.53;;;2.28;;
38972;SDS011;25333;50.762;4.470;2022-09-03T12:56:40;2.95;;;2.13;;
38972;SDS011;25333;50.762;4.470;2022-09-03T12:59:10;2.42;;;2.00;;
38972;SDS011;25333;50.762;4.470;2022-09-03T13:01:43;3.60;;;2.25;;
38972;SDS011;25333;50.762;4.470;2022-09-03T13:04:17;4.93;;;1.80;;
38972;SDS011;25333;50.762;4.470;2022-09-03T13:07:11;3.03;;;2.10;;
38972;SDS011;25333;50.762;4.470;2022-09-03T13:10:00;2.83;;;1.88;;
38972;SDS011;25333;50.762;4.470;2022-09-03T13:12:41;2.20;;;1.65;;
38972;SDS011;25333;50.762;4.470;2022-09-03T13:15:16;3.17;;;1.42;;
38972;SDS011;25333;50.762;4.470;2022-09-03T13:17:52;2.15;;;1.60;;
38972;SDS011;25333;50.762;4.470;2022-09-03T13:23:19;2.45;;;2.00;;
38972;SDS011;25333;50.762;4.470;2022-09-03T13:26:17;3.20;;;1.52;;
38972;SDS011;25333;50.762;4.470;2022-09-03T13:31:54;2.35;;;1.42;;
38972;SDS011;25333;50.762;4.470;2022-09-03T13:37:19;1.63;;;1.15;;
38972;SDS011;25333;50.762;4.470;2022-09-03T13:39:52;1.48;;;1.10;;
38972;SDS011;25333;50.762;4.470;2022-09-03T13:42:24;2.90;;;1.38;;
38972;SDS011;25333;50.762;4.470;2022-09-03T13:50:58;1.63;;;0.80;;
38972;SDS011;25333;50.762;4.470;2022-09-03T13:53:35;2.33;;;0.93;;
38972;SDS011;25333;50.762;4.470;2022-09-03T13:56:17;2.38;;;1.20;;
38972;SDS011;25333;50.762;4.470;2022-09-03T13:58:45;1.75;;;1.00;;
38972;SDS011;25333;50.762;4.470;2022-09-03T14:03:56;1.10;;;0.67;;
38972;SDS011;25333;50.762;4.470;2022-09-03T14:09:13;1.75;;;1.23;;
38972;SDS011;25333;50.762;4.470;2022-09-03T14:14:57;1.45;;;1.02;;
38972;SDS011;25333;50.762;4.470;2022-09-03T14:22:45;2.30;;;1.13;;
38972;SDS011;25333;50.762;4.470;2022-09-03T14:25:27;1.88;;;1.00;;
38972;SDS011;25333;50.762;4.470;2022-09-03T14:28:11;1.40;;;1.00;;
38972;SDS011;25333;50.762;4.470;2022-09-03T14:30:56;1.27;;;1.02;;
38972;SDS011;25333;50.762;4.470;2022-09-03T14:33:50;2.63;;;1.07;;
38972;SDS011;25333;50.762;4.470;2022-09-03T14:39:12;2.70;;;1.00;;
38972;SDS011;25333;50.762;4.470;2022-09-03T14:45:04;1.92;;;1.45;;
38972;SDS011;25333;50.762;4.470;2022-09-03T14:56:49;1.80;;;0.90;;
38972;SDS011;25333;50.762;4.470;2022-09-03T15:04:46;2.33;;;0.90;;
38972;SDS011;25333;50.762;4.470;2022-09-03T15:12:54;1.27;;;0.77;;
38972;SDS011;25333;50.762;4.470;2022-09-03T15:15:26;1.55;;;0.98;;
38972;SDS011;25333;50.762;4.470;2022-09-03T15:29:06;2.35;;;1.10;;
38972;SDS011;25333;50.762;4.470;2022-09-03T15:36:56;3.13;;;1.00;;
38972;SDS011;25333;50.762;4.470;2022-09-03T15:39:29;1.40;;;0.90;;
38972;SDS011;25333;50.762;4.470;2022-09-03T15:42:09;1.27;;;0.70;;
38972;SDS011;25333;50.762;4.470;2022-09-03T15:44:47;2.42;;;0.93;;
38972;SDS011;25333;50.762;4.470;2022-09-03T15:52:44;1.42;;;0.80;;
38972;SDS011;25333;50.762;4.470;2022-09-03T15:55:24;1.73;;;1.00;;
38972;SDS011;25333;50.762;4.470;2022-09-03T15:58:03;2.58;;;1.20;;
38972;SDS011;25333;50.762;4.470;2022-09-03T16:03:10;1.23;;;0.63;;
38972;SDS011;25333;50.762;4.470;2022-09-03T16:05:41;2.33;;;1.00;;
38972;SDS011;25333;50.762;4.470;2022-09-03T16:08:16;1.53;;;0.93;;
38972;SDS011;25333;50.762;4.470;2022-09-03T16:11:12;1.10;;;0.70;;
38972;SDS011;25333;50.762;4.470;2022-09-03T16:24:40;1.13;;;0.80;;
38972;SDS011;25333;50.762;4.470;2022-09-03T16:30:10;1.23;;;0.67;;
38972;SDS011;25333;50.762;4.470;2022-09-03T16:33:05;2.30;;;0.73;;
38972;SDS011;25333;50.762;4.470;2022-09-03T16:40:51;1.53;;;0.90;;
38972;SDS011;25333;50.762;4.470;2022-09-03T16:43:45;2.25;;;0.88;;
38972;SDS011;25333;50.762;4.470;2022-09-03T17:00:11;1.25;;;0.60;;
38972;SDS011;25333;50.762;4.470;2022-09-03T17:16:18;1.27;;;0.60;;
38972;SDS011;25333;50.762;4.470;2022-09-03T17:27:06;1.83;;;0.70;;
38972;SDS011;25333;50.762;4.470;2022-09-03T17:29:54;1.83;;;0.77;;
38972;SDS011;25333;50.762;4.470;2022-09-03T17:32:46;2.53;;;0.47;;
38972;SDS011;25333;50.762;4.470;2022-09-03T17:35:37;1.30;;;0.60;;
38972;SDS011;25333;50.762;4.470;2022-09-03T17:41:17;1.70;;;0.50;;
38972;SDS011;25333;50.762;4.470;2022-09-03T17:49:22;1.60;;;0.52;;
38972;SDS011;25333;50.762;4.470;2022-09-03T17:52:00;1.25;;;0.60;;
38972;SDS011;25333;50.762;4.470;2022-09-03T17:54:46;1.15;;;0.43;;
38972;SDS011;25333;50.762;4.470;2022-09-03T17:57:36;0.90;;;0.30;;
38972;SDS011;25333;50.762;4.470;2022-09-03T18:00:09;1.70;;;0.50;;
38972;SDS011;25333;50.762;4.470;2022-09-03T18:05:28;2.22;;;1.00;;
38972;SDS011;25333;50.762;4.470;2022-09-03T18:15:35;1.88;;;0.80;;
38972;SDS011;25333;50.762;4.470;2022-09-03T18:18:10;1.52;;;0.77;;
38972;SDS011;25333;50.762;4.470;2022-09-03T18:20:50;3.70;;;1.05;;
38972;SDS011;25333;50.762;4.470;2022-09-03T18:24:20;1.48;;;0.65;;
38972;SDS011;25333;50.762;4.470;2022-09-03T18:26:56;1.50;;;0.70;;
38972;SDS011;25333;50.762;4.470;2022-09-03T18:29:45;2.80;;;0.80;;
38972;SDS011;25333;50.762;4.470;2022-09-03T18:32:36;1.88;;;0.93;;
38972;SDS011;25333;50.762;4.470;2022-09-03T18:35:20;1.85;;;0.85;;
38972;SDS011;25333;50.762;4.470;2022-09-03T18:38:07;2.10;;;0.93;;
38972;SDS011;25333;50.762;4.470;2022-09-03T18:40:55;1.52;;;0.60;;
38972;SDS011;25333;50.762;4.470;2022-09-03T18:43:55;3.00;;;1.20;;
38972;SDS011;25333;50.762;4.470;2022-09-03T18:46:58;2.90;;;0.93;;
38972;SDS011;25333;50.762;4.470;2022-09-03T18:50:19;2.00;;;0.87;;
38972;SDS011;25333;50.762;4.470;2022-09-03T18:53:24;1.63;;;0.65;;
38972;SDS011;25333;50.762;4.470;2022-09-03T18:56:36;0.80;;;0.47;;
38972;SDS011;25333;50.762;4.470;2022-09-03T19:05:51;1.23;;;0.50;;
38972;SDS011;25333;50.762;4.470;2022-09-03T19:08:47;1.55;;;0.60;;
38972;SDS011;25333;50.762;4.470;2022-09-03T19:11:55;1.20;;;0.73;;
38972;SDS011;25333;50.762;4.470;2022-09-03T19:21:03;0.95;;;0.60;;
38972;SDS011;25333;50.762;4.470;2022-09-03T19:24:03;1.88;;;0.75;;
38972;SDS011;25333;50.762;4.470;2022-09-03T19:29:49;1.73;;;0.52;;
38972;SDS011;25333;50.762;4.470;2022-09-03T19:32:57;2.22;;;0.77;;
38972;SDS011;25333;50.762;4.470;2022-09-03T19:35:57;1.40;;;0.80;;
38972;SDS011;25333;50.762;4.470;2022-09-03T19:41:56;1.73;;;0.80;;
38972;SDS011;25333;50.762;4.470;2022-09-03T19:51:20;1.42;;;0.70;;
38972;SDS011;25333;50.762;4.470;2022-09-03T19:54:07;1.52;;;0.90;;
38972;SDS011;25333;50.762;4.470;2022-09-03T19:56:53;2.05;;;0.60;;
38972;SDS011;25333;50.762;4.470;2022-09-03T19:59:40;1.80;;;0.80;;
38972;SDS011;25333;50.762;4.470;2022-09-03T20:02:27;1.80;;;0.63;;
38972;SDS011;25333;50.762;4.470;2022-09-03T20:05:21;1.15;;;0.80;;
38972;SDS011;25333;50.762;4.470;2022-09-03T20:08:06;1.63;;;0.83;;
38972;SDS011;25333;50.762;4.470;2022-09-03T20:10:52;1.50;;;0.57;;
38972;SDS011;25333;50.762;4.470;2022-09-03T20:13:21;1.40;;;0.80;;
38972;SDS011;25333;50.762;4.470;2022-09-03T20:18:39;1.10;;;0.70;;
38972;SDS011;25333;50.762;4.470;2022-09-03T20:21:12;1.40;;;0.90;;
38972;SDS011;25333;50.762;4.470;2022-09-03T20:24:03;1.77;;;0.93;;
38972;SDS011;25333;50.762;4.470;2022-09-03T20:27:20;2.10;;;1.00;;
38972;SDS011;25333;50.762;4.470;2022-09-03T20:30:15;1.83;;;1.15;;
38972;SDS011;25333;50.762;4.470;2022-09-03T20:32:47;1.37;;;0.90;;
38972;SDS011;25333;50.762;4.470;2022-09-03T20:37:55;4.70;;;1.23;;
38972;SDS011;25333;50.762;4.470;2022-09-03T20:40:40;3.58;;;1.20;;
38972;SDS011;25333;50.762;4.470;2022-09-03T20:43:57;1.77;;;1.10;;
38972;SDS011;25333;50.762;4.470;2022-09-03T20:51:30;1.77;;;1.08;;
38972;SDS011;25333;50.762;4.470;2022-09-03T21:02:48;2.00;;;1.25;;
38972;SDS011;25333;50.762;4.470;2022-09-03T21:27:00;2.60;;;1.50;;
38972;SDS011;25333;50.762;4.470;2022-09-03T21:29:37;1.98;;;1.23;;
38972;SDS011;25333;50.762;4.470;2022-09-03T21:32:13;2.15;;;1.33;;
38972;SDS011;25333;50.762;4.470;2022-09-03T21:34:43;2.95;;;1.42;;